sensor_id;sensor_type;location;lat;lon;timestamp;temperature;humidity
39655;DHT22;25336;59.944;11.010;2023-07-09T00:00:01;19.20;57.70
39655;DHT22;25336;59.944;11.010;2023-07-09T00:02:27;19.10;58.20
39655;DHT22;25336;59.944;11.010;2023-07-09T00:04:53;19.10;57.40
39655;DHT22;25336;59.944;11.010;2023-07-09T00:07:30;19.00;57.60
39655;DHT22;25336;59.944;11.010;2023-07-09T00:09:56;19.00;58.20
39655;DHT22;25336;59.944;11.010;2023-07-09T00:12:22;18.60;57.50
39655;DHT22;25336;59.944;11.010;2023-07-09T00:14:48;19.00;57.90
39655;DHT22;25336;59.944;11.010;2023-07-09T00:17:32;18.90;58.00
39655;DHT22;25336;59.944;11.010;2023-07-09T00:19:59;18.80;58.80
39655;DHT22;25336;59.944;11.010;2023-07-09T00:22:25;18.80;58.20
39655;DHT22;25336;59.944;11.010;2023-07-09T00:24:52;18.70;58.40
39655;DHT22;25336;59.944;11.010;2023-07-09T00:27:23;18.70;58.60
39655;DHT22;25336;59.944;11.010;2023-07-09T00:29:51;18.70;58.90
39655;DHT22;25336;59.944;11.010;2023-07-09T00:32:19;18.60;58.90
39655;DHT22;25336;59.944;11.010;2023-07-09T00:34:49;18.60;59.00
39655;DHT22;25336;59.944;11.010;2023-07-09T00:37:21;18.90;59.40
39655;DHT22;25336;59.944;11.010;2023-07-09T00:39:51;18.60;59.50
39655;DHT22;25336;59.944;11.010;2023-07-09T00:42:19;18.50;59.10
39655;DHT22;25336;59.944;11.010;2023-07-09T00:44:50;18.50;59.30
39655;DHT22;25336;59.944;11.010;2023-07-09T00:47:27;18.40;59.30
39655;DHT22;25336;59.944;11.010;2023-07-09T00:50:06;18.40;59.80
39655;DHT22;25336;59.944;11.010;2023-07-09T00:52:58;18.40;59.90
39655;DHT22;25336;59.944;11.010;2023-07-09T00:55:29;18.40;60.10
39655;DHT22;25336;59.944;11.010;2023-07-09T00:58:00;18.30;59.70
39655;DHT22;25336;59.944;11.010;2023-07-09T01:00:49;18.30;59.80
39655;DHT22;25336;59.944;11.010;2023-07-09T01:05:51;18.30;60.10
39655;DHT22;25336;59.944;11.010;2023-07-09T01:08:21;18.30;59.80
39655;DHT22;25336;59.944;11.010;2023-07-09T01:10:47;18.20;60.00
39655;DHT22;25336;59.944;11.010;2023-07-09T01:13:13;18.20;60.20
39655;DHT22;25336;59.944;11.010;2023-07-09T01:15:39;18.20;60.30
39655;DHT22;25336;59.944;11.010;2023-07-09T01:18:05;18.20;60.50
39655;DHT22;25336;59.944;11.010;2023-07-09T01:20:31;18.10;60.50
39655;DHT22;25336;59.944;11.010;2023-07-09T01:22:58;18.10;60.60
39655;DHT22;25336;59.944;11.010;2023-07-09T01:25:26;18.10;60.70
39655;DHT22;25336;59.944;11.010;2023-07-09T01:27:53;18.00;60.70
39655;DHT22;25336;59.944;11.010;2023-07-09T01:32:51;18.00;60.90
39655;DHT22;25336;59.944;11.010;2023-07-09T01:35:21;18.00;61.30
39655;DHT22;25336;59.944;11.010;2023-07-09T01:37:47;17.90;61.10
39655;DHT22;25336;59.944;11.010;2023-07-09T01:40:16;17.90;61.20
39655;DHT22;25336;59.944;11.010;2023-07-09T01:42:42;17.90;61.50
39655;DHT22;25336;59.944;11.010;2023-07-09T01:45:08;17.80;61.40
39655;DHT22;25336;59.944;11.010;2023-07-09T01:47:36;17.80;61.60
39655;DHT22;25336;59.944;11.010;2023-07-09T01:50:03;17.80;61.70
39655;DHT22;25336;59.944;11.010;2023-07-09T01:52:31;17.70;61.70
39655;DHT22;25336;59.944;11.010;2023-07-09T01:54:58;17.70;62.10
39655;DHT22;25336;59.944;11.010;2023-07-09T01:57:26;17.70;62.10
39655;DHT22;25336;59.944;11.010;2023-07-09T01:59:59;17.70;62.40
39655;DHT22;25336;59.944;11.010;2023-07-09T02:02:25;17.70;62.40
39655;DHT22;25336;59.944;11.010;2023-07-09T02:04:54;17.70;62.50
39655;DHT22;25336;59.944;11.010;2023-07-09T02:07:22;17.70;62.80
39655;DHT22;25336;59.944;11.010;2023-07-09T02:09:48;17.70;62.70
39655;DHT22;25336;59.944;11.010;2023-07-09T02:12:14;17.70;62.70
39655;DHT22;25336;59.944;11.010;2023-07-09T02:14:41;17.70;62.80
39655;DHT22;25336;59.944;11.010;2023-07-09T02:17:08;17.60;62.70
39655;DHT22;25336;59.944;11.010;2023-07-09T02:19:34;17.60;62.60
39655;DHT22;25336;59.944;11.010;2023-07-09T02:21:59;17.70;62.80
39655;DHT22;25336;59.944;11.010;2023-07-09T02:24:25;17.70;62.80
39655;DHT22;25336;59.944;11.010;2023-07-09T02:26:56;17.60;62.80
39655;DHT22;25336;59.944;11.010;2023-07-09T02:29:23;17.60;63.00
39655;DHT22;25336;59.944;11.010;2023-07-09T02:31:50;17.60;63.00
39655;DHT22;25336;59.944;11.010;2023-07-09T02:34:17;17.60;63.00
39655;DHT22;25336;59.944;11.010;2023-07-09T02:36:43;17.60;63.80
39655;DHT22;25336;59.944;11.010;2023-07-09T02:39:10;17.60;63.20
39655;DHT22;25336;59.944;11.010;2023-07-09T02:41:36;16.80;62.70
39655;DHT22;25336;59.944;11.010;2023-07-09T02:44:02;17.60;63.10
39655;DHT22;25336;59.944;11.010;2023-07-09T02:46:28;17.60;63.10
39655;DHT22;25336;59.944;11.010;2023-07-09T02:48:54;17.60;63.10
39655;DHT22;25336;59.944;11.010;2023-07-09T02:51:20;17.90;63.30
39655;DHT22;25336;59.944;11.010;2023-07-09T02:53:45;17.60;63.10
39655;DHT22;25336;59.944;11.010;2023-07-09T02:56:11;17.60;63.10
39655;DHT22;25336;59.944;11.010;2023-07-09T02:58:37;17.90;63.30
39655;DHT22;25336;59.944;11.010;2023-07-09T03:01:02;17.70;63.20
39655;DHT22;25336;59.944;11.010;2023-07-09T03:03:28;17.60;63.20
39655;DHT22;25336;59.944;11.010;2023-07-09T03:05:54;17.80;63.30
39655;DHT22;25336;59.944;11.010;2023-07-09T03:08:20;17.70;63.10
39655;DHT22;25336;59.944;11.010;2023-07-09T03:10:46;17.60;62.80
39655;DHT22;25336;59.944;11.010;2023-07-09T03:13:11;17.60;62.70
39655;DHT22;25336;59.944;11.010;2023-07-09T03:15:37;17.60;62.70
39655;DHT22;25336;59.944;11.010;2023-07-09T03:18:03;17.60;63.00
39655;DHT22;25336;59.944;11.010;2023-07-09T03:20:28;17.60;63.10
39655;DHT22;25336;59.944;11.010;2023-07-09T03:22:54;17.60;63.20
39655;DHT22;25336;59.944;11.010;2023-07-09T03:25:19;17.60;63.20
39655;DHT22;25336;59.944;11.010;2023-07-09T03:27:48;17.60;63.40
39655;DHT22;25336;59.944;11.010;2023-07-09T03:30:14;17.70;63.80
39655;DHT22;25336;59.944;11.010;2023-07-09T03:32:40;17.70;63.80
39655;DHT22;25336;59.944;11.010;2023-07-09T03:35:06;17.70;63.90
39655;DHT22;25336;59.944;11.010;2023-07-09T03:37:32;17.70;63.90
39655;DHT22;25336;59.944;11.010;2023-07-09T03:39:57;17.70;64.00
39655;DHT22;25336;59.944;11.010;2023-07-09T03:42:23;17.70;63.90
39655;DHT22;25336;59.944;11.010;2023-07-09T03:44:48;17.70;63.90
39655;DHT22;25336;59.944;11.010;2023-07-09T03:47:14;17.80;64.00
39655;DHT22;25336;59.944;11.010;2023-07-09T03:49:40;17.80;63.90
39655;DHT22;25336;59.944;11.010;2023-07-09T03:52:07;18.20;64.10
39655;DHT22;25336;59.944;11.010;2023-07-09T03:54:33;17.90;63.90
39655;DHT22;25336;59.944;11.010;2023-07-09T03:56:58;17.90;63.80
39655;DHT22;25336;59.944;11.010;2023-07-09T03:59:24;18.00;63.70
39655;DHT22;25336;59.944;11.010;2023-07-09T04:01:50;18.00;63.70
39655;DHT22;25336;59.944;11.010;2023-07-09T04:04:16;18.00;63.70
39655;DHT22;25336;59.944;11.010;2023-07-09T04:06:46;18.10;63.80
39655;DHT22;25336;59.944;11.010;2023-07-09T04:09:12;18.10;63.80
39655;DHT22;25336;59.944;11.010;2023-07-09T04:11:37;18.10;63.70
39655;DHT22;25336;59.944;11.010;2023-07-09T04:14:03;18.20;63.50
39655;DHT22;25336;59.944;11.010;2023-07-09T04:16:29;18.20;63.30
39655;DHT22;25336;59.944;11.010;2023-07-09T04:18:55;18.30;63.20
39655;DHT22;25336;59.944;11.010;2023-07-09T04:21:20;18.30;63.00
39655;DHT22;25336;59.944;11.010;2023-07-09T04:23:46;18.40;62.90
39655;DHT22;25336;59.944;11.010;2023-07-09T04:26:13;18.40;62.60
39655;DHT22;25336;59.944;11.010;2023-07-09T04:28:39;18.50;62.50
39655;DHT22;25336;59.944;11.010;2023-07-09T04:31:05;18.50;62.30
39655;DHT22;25336;59.944;11.010;2023-07-09T04:33:31;18.60;62.30
39655;DHT22;25336;59.944;11.010;2023-07-09T04:35:57;18.60;62.20
39655;DHT22;25336;59.944;11.010;2023-07-09T04:38:23;18.60;62.20
39655;DHT22;25336;59.944;11.010;2023-07-09T04:40:49;18.60;62.10
39655;DHT22;25336;59.944;11.010;2023-07-09T04:43:15;18.70;62.10
39655;DHT22;25336;59.944;11.010;2023-07-09T04:45:40;18.70;62.00
39655;DHT22;25336;59.944;11.010;2023-07-09T04:48:06;18.80;62.10
39655;DHT22;25336;59.944;11.010;2023-07-09T04:50:32;18.80;62.00
39655;DHT22;25336;59.944;11.010;2023-07-09T04:52:59;18.80;62.20
39655;DHT22;25336;59.944;11.010;2023-07-09T04:55:25;18.90;62.10
39655;DHT22;25336;59.944;11.010;2023-07-09T04:57:52;18.90;61.70
39655;DHT22;25336;59.944;11.010;2023-07-09T05:00:18;19.00;61.70
39655;DHT22;25336;59.944;11.010;2023-07-09T05:02:44;19.10;61.40
39655;DHT22;25336;59.944;11.010;2023-07-09T05:05:09;19.10;61.20
39655;DHT22;25336;59.944;11.010;2023-07-09T05:07:37;19.20;61.00
39655;DHT22;25336;59.944;11.010;2023-07-09T05:10:03;19.20;60.70
39655;DHT22;25336;59.944;11.010;2023-07-09T05:12:29;19.30;60.30
39655;DHT22;25336;59.944;11.010;2023-07-09T05:14:56;19.30;59.90
39655;DHT22;25336;59.944;11.010;2023-07-09T05:17:22;19.30;59.60
39655;DHT22;25336;59.944;11.010;2023-07-09T05:19:49;19.40;59.50
39655;DHT22;25336;59.944;11.010;2023-07-09T05:22:15;19.40;59.40
39655;DHT22;25336;59.944;11.010;2023-07-09T05:24:41;19.40;59.20
39655;DHT22;25336;59.944;11.010;2023-07-09T05:27:07;19.40;59.00
39655;DHT22;25336;59.944;11.010;2023-07-09T05:29:32;19.50;59.00
39655;DHT22;25336;59.944;11.010;2023-07-09T05:31:58;19.50;58.90
39655;DHT22;25336;59.944;11.010;2023-07-09T05:34:24;19.50;58.70
39655;DHT22;25336;59.944;11.010;2023-07-09T05:36:49;19.50;58.60
39655;DHT22;25336;59.944;11.010;2023-07-09T05:39:15;19.60;58.70
39655;DHT22;25336;59.944;11.010;2023-07-09T05:41:41;19.50;58.60
39655;DHT22;25336;59.944;11.010;2023-07-09T05:44:07;19.60;58.60
39655;DHT22;25336;59.944;11.010;2023-07-09T05:46:37;19.60;58.60
39655;DHT22;25336;59.944;11.010;2023-07-09T05:49:04;19.70;58.60
39655;DHT22;25336;59.944;11.010;2023-07-09T05:51:30;19.70;58.50
39655;DHT22;25336;59.944;11.010;2023-07-09T05:53:56;19.70;58.50
39655;DHT22;25336;59.944;11.010;2023-07-09T05:56:21;19.80;58.50
39655;DHT22;25336;59.944;11.010;2023-07-09T05:58:47;19.80;58.30
39655;DHT22;25336;59.944;11.010;2023-07-09T06:01:13;19.90;58.20
39655;DHT22;25336;59.944;11.010;2023-07-09T06:03:39;20.00;58.10
39655;DHT22;25336;59.944;11.010;2023-07-09T06:06:05;20.00;58.00
39655;DHT22;25336;59.944;11.010;2023-07-09T06:08:32;20.10;57.90
39655;DHT22;25336;59.944;11.010;2023-07-09T06:11:00;20.10;57.80
39655;DHT22;25336;59.944;11.010;2023-07-09T06:13:28;20.20;57.80
39655;DHT22;25336;59.944;11.010;2023-07-09T06:15:56;20.30;57.60
39655;DHT22;25336;59.944;11.010;2023-07-09T06:18:23;20.40;57.50
39655;DHT22;25336;59.944;11.010;2023-07-09T06:20:51;20.10;57.10
39655;DHT22;25336;59.944;11.010;2023-07-09T06:23:18;20.60;57.20
39655;DHT22;25336;59.944;11.010;2023-07-09T06:25:44;20.70;56.90
39655;DHT22;25336;59.944;11.010;2023-07-09T06:28:14;20.70;56.50
39655;DHT22;25336;59.944;11.010;2023-07-09T06:30:40;20.80;56.40
39655;DHT22;25336;59.944;11.010;2023-07-09T06:33:06;20.90;55.90
39655;DHT22;25336;59.944;11.010;2023-07-09T06:35:32;21.00;55.60
39655;DHT22;25336;59.944;11.010;2023-07-09T06:37:58;21.10;56.30
39655;DHT22;25336;59.944;11.010;2023-07-09T06:40:23;21.10;55.60
39655;DHT22;25336;59.944;11.010;2023-07-09T06:42:50;21.20;55.50
39655;DHT22;25336;59.944;11.010;2023-07-09T06:45:16;21.30;55.40
39655;DHT22;25336;59.944;11.010;2023-07-09T06:47:42;21.40;55.00
39655;DHT22;25336;59.944;11.010;2023-07-09T06:50:08;20.70;54.30
39655;DHT22;25336;59.944;11.010;2023-07-09T06:52:33;21.50;54.40
39655;DHT22;25336;59.944;11.010;2023-07-09T06:54:59;21.60;53.90
39655;DHT22;25336;59.944;11.010;2023-07-09T06:57:25;21.70;53.70
39655;DHT22;25336;59.944;11.010;2023-07-09T06:59:50;21.80;53.40
39655;DHT22;25336;59.944;11.010;2023-07-09T07:02:16;21.90;52.80
39655;DHT22;25336;59.944;11.010;2023-07-09T07:04:43;22.00;52.40
39655;DHT22;25336;59.944;11.010;2023-07-09T07:07:08;22.10;51.60
39655;DHT22;25336;59.944;11.010;2023-07-09T07:09:35;22.10;51.00
39655;DHT22;25336;59.944;11.010;2023-07-09T07:12:00;22.20;51.10
39655;DHT22;25336;59.944;11.010;2023-07-09T07:14:26;22.30;51.00
39655;DHT22;25336;59.944;11.010;2023-07-09T07:16:51;23.30;51.10
39655;DHT22;25336;59.944;11.010;2023-07-09T07:19:17;22.40;50.90
39655;DHT22;25336;59.944;11.010;2023-07-09T07:21:43;22.50;50.80
39655;DHT22;25336;59.944;11.010;2023-07-09T07:24:08;22.50;50.90
39655;DHT22;25336;59.944;11.010;2023-07-09T07:26:34;22.60;50.60
39655;DHT22;25336;59.944;11.010;2023-07-09T07:28:59;22.60;50.40
39655;DHT22;25336;59.944;11.010;2023-07-09T07:31:25;22.70;50.50
39655;DHT22;25336;59.944;11.010;2023-07-09T07:33:51;22.80;50.00
39655;DHT22;25336;59.944;11.010;2023-07-09T07:36:16;22.80;49.10
39655;DHT22;25336;59.944;11.010;2023-07-09T07:38:42;22.90;49.70
39655;DHT22;25336;59.944;11.010;2023-07-09T07:41:08;22.90;49.70
39655;DHT22;25336;59.944;11.010;2023-07-09T07:43:33;23.00;50.00
39655;DHT22;25336;59.944;11.010;2023-07-09T07:45:59;23.00;49.50
39655;DHT22;25336;59.944;11.010;2023-07-09T07:48:25;23.10;49.50
39655;DHT22;25336;59.944;11.010;2023-07-09T07:50:51;23.20;49.50
39655;DHT22;25336;59.944;11.010;2023-07-09T07:53:17;23.20;49.90
39655;DHT22;25336;59.944;11.010;2023-07-09T07:55:42;23.30;49.60
39655;DHT22;25336;59.944;11.010;2023-07-09T07:58:11;23.40;49.10
39655;DHT22;25336;59.944;11.010;2023-07-09T08:00:38;23.40;48.70
39655;DHT22;25336;59.944;11.010;2023-07-09T08:03:04;23.50;48.80
39655;DHT22;25336;59.944;11.010;2023-07-09T08:05:29;23.60;48.70
39655;DHT22;25336;59.944;11.010;2023-07-09T08:07:55;23.70;48.80
39655;DHT22;25336;59.944;11.010;2023-07-09T08:10:21;23.70;48.30
39655;DHT22;25336;59.944;11.010;2023-07-09T08:12:47;23.80;48.20
39655;DHT22;25336;59.944;11.010;2023-07-09T08:15:13;23.80;48.00
39655;DHT22;25336;59.944;11.010;2023-07-09T08:17:39;23.90;47.70
39655;DHT22;25336;59.944;11.010;2023-07-09T08:20:05;23.60;47.40
39655;DHT22;25336;59.944;11.010;2023-07-09T08:22:30;24.00;47.70
39655;DHT22;25336;59.944;11.010;2023-07-09T08:24:56;24.00;47.20
39655;DHT22;25336;59.944;11.010;2023-07-09T08:27:22;24.10;47.00
39655;DHT22;25336;59.944;11.010;2023-07-09T08:29:47;24.20;47.20
39655;DHT22;25336;59.944;11.010;2023-07-09T08:32:14;24.20;47.00
39655;DHT22;25336;59.944;11.010;2023-07-09T08:34:41;24.30;47.50
39655;DHT22;25336;59.944;11.010;2023-07-09T08:37:07;24.40;47.10
39655;DHT22;25336;59.944;11.010;2023-07-09T08:39:34;24.50;47.00
39655;DHT22;25336;59.944;11.010;2023-07-09T08:42:13;24.50;46.70
39655;DHT22;25336;59.944;11.010;2023-07-09T08:45:03;24.70;46.60
39655;DHT22;25336;59.944;11.010;2023-07-09T08:47:58;24.70;45.30
39655;DHT22;25336;59.944;11.010;2023-07-09T08:50:41;24.80;44.80
39655;DHT22;25336;59.944;11.010;2023-07-09T08:53:25;24.90;45.20
39655;DHT22;25336;59.944;11.010;2023-07-09T08:55:55;25.00;45.50
39655;DHT22;25336;59.944;11.010;2023-07-09T08:58:31;25.10;45.40
39655;DHT22;25336;59.944;11.010;2023-07-09T09:01:44;25.10;44.90
39655;DHT22;25336;59.944;11.010;2023-07-09T09:04:19;25.20;44.10
39655;DHT22;25336;59.944;11.010;2023-07-09T09:06:50;25.30;44.40
39655;DHT22;25336;59.944;11.010;2023-07-09T09:12:13;25.40;43.40
39655;DHT22;25336;59.944;11.010;2023-07-09T09:14:48;25.40;43.60
39655;DHT22;25336;59.944;11.010;2023-07-09T09:17:19;25.50;43.40
39655;DHT22;25336;59.944;11.010;2023-07-09T09:22:47;25.60;43.40
39655;DHT22;25336;59.944;11.010;2023-07-09T09:25:34;25.70;43.10
39655;DHT22;25336;59.944;11.010;2023-07-09T09:28:02;25.70;42.00
39655;DHT22;25336;59.944;11.010;2023-07-09T09:30:29;25.80;42.50
39655;DHT22;25336;59.944;11.010;2023-07-09T09:32:57;25.90;42.00
39655;DHT22;25336;59.944;11.010;2023-07-09T09:38:00;26.00;41.40
39655;DHT22;25336;59.944;11.010;2023-07-09T09:40:28;26.00;41.90
39655;DHT22;25336;59.944;11.010;2023-07-09T09:42:56;26.10;40.70
39655;DHT22;25336;59.944;11.010;2023-07-09T09:45:28;26.20;40.80
39655;DHT22;25336;59.944;11.010;2023-07-09T09:48:00;26.30;41.40
39655;DHT22;25336;59.944;11.010;2023-07-09T09:50:30;26.40;40.90
39655;DHT22;25336;59.944;11.010;2023-07-09T09:52:57;26.50;40.30
39655;DHT22;25336;59.944;11.010;2023-07-09T09:55:27;26.60;41.00
39655;DHT22;25336;59.944;11.010;2023-07-09T09:57:54;26.70;40.00
39655;DHT22;25336;59.944;11.010;2023-07-09T10:00:25;26.70;39.60
39655;DHT22;25336;59.944;11.010;2023-07-09T10:02:56;26.80;40.30
39655;DHT22;25336;59.944;11.010;2023-07-09T10:05:38;26.90;40.10
39655;DHT22;25336;59.944;11.010;2023-07-09T10:08:09;27.00;39.20
39655;DHT22;25336;59.944;11.010;2023-07-09T10:10:40;27.00;38.20
39655;DHT22;25336;59.944;11.010;2023-07-09T10:13:30;27.10;38.80
39655;DHT22;25336;59.944;11.010;2023-07-09T10:16:08;27.10;38.20
39655;DHT22;25336;59.944;11.010;2023-07-09T10:24:25;27.40;37.40
39655;DHT22;25336;59.944;11.010;2023-07-09T10:27:02;27.40;36.60
39655;DHT22;25336;59.944;11.010;2023-07-09T10:33:14;27.50;37.00
39655;DHT22;25336;59.944;11.010;2023-07-09T10:40:55;27.70;37.20
39655;DHT22;25336;59.944;11.010;2023-07-09T10:46:16;27.80;37.50
39655;DHT22;25336;59.944;11.010;2023-07-09T10:48:45;27.90;36.80
39655;DHT22;25336;59.944;11.010;2023-07-09T10:51:33;28.00;36.90
39655;DHT22;25336;59.944;11.010;2023-07-09T10:56:58;28.10;36.60
39655;DHT22;25336;59.944;11.010;2023-07-09T10:59:33;28.20;36.60
39655;DHT22;25336;59.944;11.010;2023-07-09T11:02:30;28.20;35.80
39655;DHT22;25336;59.944;11.010;2023-07-09T11:04:58;28.30;34.90
39655;DHT22;25336;59.944;11.010;2023-07-09T11:10:02;28.40;35.90
39655;DHT22;25336;59.944;11.010;2023-07-09T11:12:43;28.50;35.40
39655;DHT22;25336;59.944;11.010;2023-07-09T11:15:20;28.60;34.40
39655;DHT22;25336;59.944;11.010;2023-07-09T11:17:49;28.60;34.20
39655;DHT22;25336;59.944;11.010;2023-07-09T11:20:23;28.70;34.20
39655;DHT22;25336;59.944;11.010;2023-07-09T11:22:54;28.80;33.50
39655;DHT22;25336;59.944;11.010;2023-07-09T11:26:01;28.80;32.70
39655;DHT22;25336;59.944;11.010;2023-07-09T11:28:38;28.90;32.20
39655;DHT22;25336;59.944;11.010;2023-07-09T11:31:08;28.90;32.70
39655;DHT22;25336;59.944;11.010;2023-07-09T11:34:07;28.90;34.00
39655;DHT22;25336;59.944;11.010;2023-07-09T11:36:34;29.00;32.50
39655;DHT22;25336;59.944;11.010;2023-07-09T11:39:02;29.00;33.40
39655;DHT22;25336;59.944;11.010;2023-07-09T11:44:26;29.10;32.80
39655;DHT22;25336;59.944;11.010;2023-07-09T11:50:25;29.30;32.50
39655;DHT22;25336;59.944;11.010;2023-07-09T11:53:00;29.40;32.20
39655;DHT22;25336;59.944;11.010;2023-07-09T11:55:40;29.40;32.90
39655;DHT22;25336;59.944;11.010;2023-07-09T11:58:09;29.50;32.00
39655;DHT22;25336;59.944;11.010;2023-07-09T12:00:43;29.60;32.70
39655;DHT22;25336;59.944;11.010;2023-07-09T12:03:23;29.60;32.00
39655;DHT22;25336;59.944;11.010;2023-07-09T12:05:54;29.70;32.20
39655;DHT22;25336;59.944;11.010;2023-07-09T12:08:29;30.50;33.90
39655;DHT22;25336;59.944;11.010;2023-07-09T12:10:57;29.80;33.40
39655;DHT22;25336;59.944;11.010;2023-07-09T12:13:23;29.90;33.70
39655;DHT22;25336;59.944;11.010;2023-07-09T12:15:49;30.00;33.70
39655;DHT22;25336;59.944;11.010;2023-07-09T12:18:15;30.10;33.50
39655;DHT22;25336;59.944;11.010;2023-07-09T12:20:45;30.20;33.50
39655;DHT22;25336;59.944;11.010;2023-07-09T12:25:48;30.40;33.20
39655;DHT22;25336;59.944;11.010;2023-07-09T12:28:15;30.40;32.70
39655;DHT22;25336;59.944;11.010;2023-07-09T12:30:45;30.50;33.00
39655;DHT22;25336;59.944;11.010;2023-07-09T12:33:22;31.40;33.50
39655;DHT22;25336;59.944;11.010;2023-07-09T12:35:52;30.60;32.00
39655;DHT22;25336;59.944;11.010;2023-07-09T12:38:19;30.60;32.70
39655;DHT22;25336;59.944;11.010;2023-07-09T12:40:50;30.70;33.00
39655;DHT22;25336;59.944;11.010;2023-07-09T12:43:25;30.70;32.10
39655;DHT22;25336;59.944;11.010;2023-07-09T12:45:56;30.90;32.50
39655;DHT22;25336;59.944;11.010;2023-07-09T12:48:25;30.90;33.10
39655;DHT22;25336;59.944;11.010;2023-07-09T12:50:55;31.00;32.40
39655;DHT22;25336;59.944;11.010;2023-07-09T12:53:24;31.00;31.70
39655;DHT22;25336;59.944;11.010;2023-07-09T12:55:55;31.10;31.90
39655;DHT22;25336;59.944;11.010;2023-07-09T12:58:23;31.20;30.80
39655;DHT22;25336;59.944;11.010;2023-07-09T13:00:51;31.30;31.30
39655;DHT22;25336;59.944;11.010;2023-07-09T13:03:26;31.30;32.80
39655;DHT22;25336;59.944;11.010;2023-07-09T13:06:00;31.40;31.10
39655;DHT22;25336;59.944;11.010;2023-07-09T13:08:28;31.50;31.10
39655;DHT22;25336;59.944;11.010;2023-07-09T13:10:55;31.60;32.30
39655;DHT22;25336;59.944;11.010;2023-07-09T13:13:23;31.70;31.90
39655;DHT22;25336;59.944;11.010;2023-07-09T13:15:57;31.80;31.70
39655;DHT22;25336;59.944;11.010;2023-07-09T13:18:25;31.90;30.30
39655;DHT22;25336;59.944;11.010;2023-07-09T13:20:52;31.90;31.40
39655;DHT22;25336;59.944;11.010;2023-07-09T13:23:24;31.80;30.70
39655;DHT22;25336;59.944;11.010;2023-07-09T13:25:50;31.90;30.60
39655;DHT22;25336;59.944;11.010;2023-07-09T13:28:20;31.80;31.30
39655;DHT22;25336;59.944;11.010;2023-07-09T13:30:51;31.20;29.70
39655;DHT22;25336;59.944;11.010;2023-07-09T13:33:17;31.80;29.30
39655;DHT22;25336;59.944;11.010;2023-07-09T13:35:44;31.80;29.80
39655;DHT22;25336;59.944;11.010;2023-07-09T13:38:17;31.70;30.10
39655;DHT22;25336;59.944;11.010;2023-07-09T13:40:45;31.70;30.90
39655;DHT22;25336;59.944;11.010;2023-07-09T13:43:22;31.70;31.90
39655;DHT22;25336;59.944;11.010;2023-07-09T13:45:47;31.80;30.80
39655;DHT22;25336;59.944;11.010;2023-07-09T13:48:17;31.80;30.50
39655;DHT22;25336;59.944;11.010;2023-07-09T13:50:44;31.80;30.00
39655;DHT22;25336;59.944;11.010;2023-07-09T13:53:16;31.90;31.20
39655;DHT22;25336;59.944;11.010;2023-07-09T13:55:42;31.90;31.60
39655;DHT22;25336;59.944;11.010;2023-07-09T13:58:10;32.00;31.80
39655;DHT22;25336;59.944;11.010;2023-07-09T14:00:36;32.10;32.00
39655;DHT22;25336;59.944;11.010;2023-07-09T14:03:02;32.10;31.60
39655;DHT22;25336;59.944;11.010;2023-07-09T14:05:28;32.20;31.50
39655;DHT22;25336;59.944;11.010;2023-07-09T14:07:54;32.20;30.60
39655;DHT22;25336;59.944;11.010;2023-07-09T14:10:19;32.30;30.60
39655;DHT22;25336;59.944;11.010;2023-07-09T14:12:47;32.30;30.40
39655;DHT22;25336;59.944;11.010;2023-07-09T14:15:20;32.40;29.90
39655;DHT22;25336;59.944;11.010;2023-07-09T14:17:46;32.40;29.80
39655;DHT22;25336;59.944;11.010;2023-07-09T14:20:17;32.50;29.70
39655;DHT22;25336;59.944;11.010;2023-07-09T14:22:43;32.50;29.80
39655;DHT22;25336;59.944;11.010;2023-07-09T14:25:24;32.60;29.90
39655;DHT22;25336;59.944;11.010;2023-07-09T14:27:51;32.70;29.40
39655;DHT22;25336;59.944;11.010;2023-07-09T14:30:20;32.70;28.60
39655;DHT22;25336;59.944;11.010;2023-07-09T14:32:47;32.60;29.30
39655;DHT22;25336;59.944;11.010;2023-07-09T14:35:16;32.70;28.20
39655;DHT22;25336;59.944;11.010;2023-07-09T14:37:43;32.60;28.10
39655;DHT22;25336;59.944;11.010;2023-07-09T14:40:09;32.50;28.40
39655;DHT22;25336;59.944;11.010;2023-07-09T14:42:37;32.50;28.30
39655;DHT22;25336;59.944;11.010;2023-07-09T14:45:05;32.50;28.20
39655;DHT22;25336;59.944;11.010;2023-07-09T14:47:31;32.50;27.60
39655;DHT22;25336;59.944;11.010;2023-07-09T14:49:56;32.40;28.20
39655;DHT22;25336;59.944;11.010;2023-07-09T14:52:22;32.40;28.30
39655;DHT22;25336;59.944;11.010;2023-07-09T14:54:48;32.80;28.30
39655;DHT22;25336;59.944;11.010;2023-07-09T14:57:24;32.40;27.80
39655;DHT22;25336;59.944;11.010;2023-07-09T14:59:52;32.40;27.30
39655;DHT22;25336;59.944;11.010;2023-07-09T15:02:35;32.40;28.30
39655;DHT22;25336;59.944;11.010;2023-07-09T15:05:03;32.30;28.20
39655;DHT22;25336;59.944;11.010;2023-07-09T15:07:29;32.30;27.80
39655;DHT22;25336;59.944;11.010;2023-07-09T15:10:01;32.30;27.60
39655;DHT22;25336;59.944;11.010;2023-07-09T15:12:31;32.30;27.80
39655;DHT22;25336;59.944;11.010;2023-07-09T15:15:06;32.30;28.20
39655;DHT22;25336;59.944;11.010;2023-07-09T15:17:37;32.30;27.30
39655;DHT22;25336;59.944;11.010;2023-07-09T15:20:03;32.20;27.70
39655;DHT22;25336;59.944;11.010;2023-07-09T15:22:32;32.20;27.90
39655;DHT22;25336;59.944;11.010;2023-07-09T15:24:58;32.20;27.40
39655;DHT22;25336;59.944;11.010;2023-07-09T15:27:24;32.10;28.10
39655;DHT22;25336;59.944;11.010;2023-07-09T15:29:50;32.10;28.20
39655;DHT22;25336;59.944;11.010;2023-07-09T15:32:16;32.10;27.70
39655;DHT22;25336;59.944;11.010;2023-07-09T15:34:42;32.10;27.60
39655;DHT22;25336;59.944;11.010;2023-07-09T15:37:16;32.20;27.70
39655;DHT22;25336;59.944;11.010;2023-07-09T15:39:42;32.20;27.70
39655;DHT22;25336;59.944;11.010;2023-07-09T15:42:12;32.30;27.60
39655;DHT22;25336;59.944;11.010;2023-07-09T15:44:39;32.20;27.40
39655;DHT22;25336;59.944;11.010;2023-07-09T15:47:05;32.30;28.10
39655;DHT22;25336;59.944;11.010;2023-07-09T15:49:34;32.20;27.80
39655;DHT22;25336;59.944;11.010;2023-07-09T15:52:00;32.20;28.00
39655;DHT22;25336;59.944;11.010;2023-07-09T15:54:28;32.20;28.10
39655;DHT22;25336;59.944;11.010;2023-07-09T15:56:54;32.20;28.00
39655;DHT22;25336;59.944;11.010;2023-07-09T16:01:45;32.30;28.50
39655;DHT22;25336;59.944;11.010;2023-07-09T16:04:10;32.20;28.00
39655;DHT22;25336;59.944;11.010;2023-07-09T16:06:37;32.10;28.40
39655;DHT22;25336;59.944;11.010;2023-07-09T16:09:03;32.30;28.10
39655;DHT22;25336;59.944;11.010;2023-07-09T16:11:30;32.30;27.80